createdAt,value
2023-01-13T00:00:16.133Z,7.65
2023-01-13T00:02:42.886Z,7.81
2023-01-13T00:05:12.401Z,7.84
2023-01-13T00:07:42.839Z,8.05
2023-01-13T00:10:13.016Z,7.88
2023-01-13T00:12:48.643Z,7.84
2023-01-13T00:15:15.658Z,7.82
2023-01-13T00:17:44.643Z,7.76
2023-01-13T00:20:11.669Z,7.71
2023-01-13T00:22:38.289Z,7.75
2023-01-13T00:25:05.635Z,7.71
2023-01-13T00:27:33.267Z,7.63
2023-01-13T00:29:59.864Z,7.62
2023-01-13T00:32:27.305Z,7.70
2023-01-13T00:34:54.434Z,7.73
2023-01-13T00:37:21.273Z,7.77
2023-01-13T00:39:52.247Z,7.64
2023-01-13T00:42:22.589Z,7.61
2023-01-13T00:44:49.865Z,7.63
2023-01-13T00:47:16.597Z,7.64
2023-01-13T00:49:52.702Z,7.58
2023-01-13T00:52:21.986Z,7.56
2023-01-13T00:54:57.389Z,7.57
2023-01-13T00:57:30.759Z,7.54
2023-01-13T00:59:57.396Z,7.47
2023-01-13T01:02:24.101Z,7.46
2023-01-13T01:04:50.755Z,7.43
2023-01-13T01:07:17.394Z,7.58
2023-01-13T01:09:47.075Z,7.62
2023-01-13T01:12:15.703Z,7.75
2023-01-13T01:14:42.329Z,7.71
2023-01-13T01:17:11.730Z,7.77
2023-01-13T01:19:40.125Z,7.89
2023-01-13T01:22:07.776Z,7.83
2023-01-13T01:24:34.990Z,7.82
2023-01-13T01:27:01.649Z,7.85
2023-01-13T01:29:31.073Z,7.89
2023-01-13T01:31:58.382Z,7.93
2023-01-13T01:34:24.963Z,7.98
2023-01-13T01:36:51.575Z,8.10
2023-01-13T01:39:18.172Z,8.09
2023-01-13T01:41:44.768Z,7.86
2023-01-13T01:44:42.262Z,7.76
2023-01-13T01:47:11.818Z,7.69
2023-01-13T01:49:45.880Z,7.63
2023-01-13T01:52:19.507Z,7.69
2023-01-13T01:55:03.888Z,7.85
2023-01-13T01:57:39.540Z,7.73
2023-01-13T02:00:09.384Z,7.71
2023-01-13T02:02:39.712Z,7.57
2023-01-13T02:05:09.036Z,7.59
2023-01-13T02:07:39.152Z,7.52
2023-01-13T02:10:09.192Z,7.50
2023-01-13T02:12:36.679Z,7.49
2023-01-13T02:15:05.569Z,7.35
2023-01-13T02:17:38.292Z,7.41
2023-01-13T02:20:23.293Z,7.40
2023-01-13T02:22:58.714Z,7.39
2023-01-13T02:25:53.078Z,7.38
2023-01-13T02:28:40.551Z,7.29
2023-01-13T02:31:10.510Z,7.28
2023-01-13T02:34:09.648Z,7.19
2023-01-13T02:36:49.058Z,7.27
2023-01-13T02:39:48.992Z,7.42
2023-01-13T02:42:27.819Z,7.57
2023-01-13T02:45:07.723Z,7.42
2023-01-13T02:47:37.992Z,7.42
2023-01-13T02:50:13.029Z,7.39
2023-01-13T02:52:44.560Z,7.42
2023-01-13T02:55:19.892Z,7.38
2023-01-13T02:57:48.392Z,7.38
2023-01-13T03:00:17.059Z,7.45
2023-01-13T03:02:45.469Z,7.50
2023-01-13T03:05:16.381Z,7.46
2023-01-13T03:08:03.496Z,7.49
2023-01-13T03:10:33.257Z,7.52
2023-01-13T03:13:44.721Z,7.37
2023-01-13T03:16:42.324Z,7.27
2023-01-13T03:19:41.367Z,7.26
2023-01-13T03:22:31.572Z,7.24
2023-01-13T03:25:20.841Z,7.13
2023-01-13T03:28:00.582Z,7.06
2023-01-13T03:30:33.033Z,7.11
2023-01-13T03:33:14.609Z,7.11
2023-01-13T03:35:45.961Z,7.05
2023-01-13T03:38:19.522Z,6.94
2023-01-13T03:40:54.497Z,6.98
2023-01-13T03:43:57.912Z,7.01
2023-01-13T03:46:36.298Z,7.05
2023-01-13T03:49:10.678Z,7.04
2023-01-13T03:51:43.628Z,6.98
2023-01-13T03:54:11.981Z,6.94
2023-01-13T03:56:54.735Z,6.89
2023-01-13T03:59:30.115Z,6.97
2023-01-13T04:02:23.930Z,7.06
2023-01-13T04:04:59.715Z,7.00
2023-01-13T04:07:41.583Z,6.92
2023-01-13T04:10:14.726Z,6.97
2023-01-13T04:13:13.446Z,7.04
2023-01-13T04:15:49.951Z,7.18
2023-01-13T04:18:26.007Z,7.20
2023-01-13T04:21:00.544Z,7.19
2023-01-13T04:23:33.697Z,7.32
2023-01-13T04:26:06.116Z,7.33
2023-01-13T04:28:36.751Z,7.37
2023-01-13T04:31:07.146Z,7.24
2023-01-13T04:33:34.351Z,7.09
2023-01-13T04:36:06.173Z,7.14
2023-01-13T04:38:38.633Z,7.20
2023-01-13T04:41:12.755Z,7.13
2023-01-13T04:43:43.555Z,7.11
2023-01-13T04:46:20.322Z,7.19
2023-01-13T04:48:55.921Z,7.21
2023-01-13T04:51:22.509Z,7.14
2023-01-13T04:53:51.657Z,7.04
2023-01-13T04:56:19.363Z,6.94
2023-01-13T04:58:45.965Z,6.85
2023-01-13T05:01:17.752Z,6.83
2023-01-13T05:03:47.959Z,6.83
2023-01-13T05:06:15.501Z,6.90
2023-01-13T05:08:45.543Z,6.96
2023-01-13T05:11:12.127Z,6.98
2023-01-13T05:13:41.789Z,7.04
2023-01-13T05:16:11.419Z,6.98
2023-01-13T05:18:40.273Z,6.89
2023-01-13T05:21:13.684Z,6.99
2023-01-13T05:23:40.282Z,7.05
2023-01-13T05:26:09.886Z,7.17
2023-01-13T05:28:40.288Z,7.20
2023-01-13T05:31:07.284Z,7.13
2023-01-13T05:33:39.869Z,7.08
2023-01-13T05:36:06.805Z,7.20
2023-01-13T05:38:36.996Z,7.30
2023-01-13T05:41:08.172Z,7.31
2023-01-13T05:43:41.502Z,7.23
2023-01-13T05:46:13.813Z,7.22
2023-01-13T05:48:43.288Z,7.40
2023-01-13T05:51:11.948Z,7.43
2023-01-13T05:53:39.111Z,7.40
2023-01-13T05:56:10.811Z,7.43
2023-01-13T05:58:38.292Z,7.19
2023-01-13T06:01:12.319Z,7.02
2023-01-13T06:03:51.865Z,7.04
2023-01-13T06:06:18.726Z,7.00
2023-01-13T06:08:46.835Z,7.03
2023-01-13T06:11:19.168Z,6.95
2023-01-13T06:13:52.309Z,6.91
2023-01-13T06:16:18.966Z,6.92
2023-01-13T06:18:49.881Z,6.90
2023-01-13T06:21:16.550Z,6.87
2023-01-13T06:23:46.388Z,6.88
2023-01-13T06:26:24.899Z,6.93
2023-01-13T06:28:51.565Z,6.97
2023-01-13T06:31:19.183Z,6.92
2023-01-13T06:33:50.747Z,6.94
2023-01-13T06:36:30.944Z,7.02
2023-01-13T06:38:59.972Z,7.04
2023-01-13T06:41:31.249Z,7.14
2023-01-13T06:43:57.819Z,7.01
2023-01-13T06:46:25.587Z,7.04
2023-01-13T06:48:52.122Z,7.04
2023-01-13T06:51:18.707Z,6.98
2023-01-13T06:53:45.289Z,6.99
2023-01-13T06:56:11.877Z,6.98
2023-01-13T06:58:38.458Z,7.02
2023-01-13T07:01:05.146Z,7.04
2023-01-13T07:03:31.775Z,7.07
2023-01-13T07:05:58.303Z,7.20
2023-01-13T07:08:27.556Z,7.08
2023-01-13T07:10:54.540Z,7.03
2023-01-13T07:13:24.769Z,7.02
2023-01-13T07:16:03.506Z,7.12
2023-01-13T07:18:31.897Z,7.10
2023-01-13T07:21:06.742Z,7.12
2023-01-13T07:23:40.554Z,7.13
2023-01-13T07:26:09.498Z,7.15
2023-01-13T07:28:36.776Z,7.09
2023-01-13T07:31:03.815Z,7.09
2023-01-13T07:33:30.472Z,7.07
2023-01-13T07:35:58.695Z,7.02
2023-01-13T07:38:25.632Z,7.15
2023-01-13T07:40:52.240Z,7.17
2023-01-13T07:43:18.860Z,7.16
2023-01-13T07:45:45.565Z,7.20
2023-01-13T07:48:20.976Z,7.28
2023-01-13T07:50:47.542Z,7.37
2023-01-13T07:53:14.139Z,7.44
2023-01-13T07:55:44.077Z,7.40
2023-01-13T07:58:11.280Z,7.51
2023-01-13T08:00:38.796Z,7.58
2023-01-13T08:03:05.446Z,7.49
2023-01-13T08:05:42.945Z,7.44
2023-01-13T08:08:12.873Z,7.52
2023-01-13T08:10:45.497Z,7.76
2023-01-13T08:13:14.873Z,7.70
2023-01-13T08:15:42.568Z,7.84
2023-01-13T08:18:09.209Z,7.75
2023-01-13T08:20:35.808Z,7.72
2023-01-13T08:23:02.456Z,7.71
2023-01-13T08:25:33.610Z,7.79
2023-01-13T08:28:00.179Z,7.83
2023-01-13T08:30:30.466Z,7.85
2023-01-13T08:32:57.092Z,7.84
2023-01-13T08:35:24.019Z,7.84
2023-01-13T08:37:51.561Z,7.84
2023-01-13T08:40:23.336Z,7.85
2023-01-13T08:42:49.906Z,7.90
2023-01-13T08:45:16.628Z,8.01
2023-01-13T08:47:43.184Z,8.00
2023-01-13T08:50:10.464Z,8.00
2023-01-13T08:52:37.536Z,8.05
2023-01-13T08:55:04.512Z,8.03
2023-01-13T08:57:31.147Z,7.99
2023-01-13T08:59:57.791Z,8.01
2023-01-13T09:02:26.072Z,8.18
2023-01-13T09:04:53.798Z,8.22
2023-01-13T09:07:21.402Z,8.20
2023-01-13T09:09:47.948Z,8.27
2023-01-13T09:12:16.224Z,8.09
2023-01-13T09:14:42.819Z,8.03
2023-01-13T09:17:09.398Z,8.00
2023-01-13T09:19:36.143Z,7.97
2023-01-13T09:22:03.052Z,8.06
2023-01-13T09:24:30.139Z,8.11
2023-01-13T09:26:56.722Z,8.08
2023-01-13T09:29:23.456Z,8.07
2023-01-13T09:31:50.076Z,8.10
2023-01-13T09:34:20.681Z,8.01
2023-01-13T09:36:47.309Z,8.07
2023-01-13T09:39:14.279Z,8.06
2023-01-13T09:41:53.504Z,8.13
2023-01-13T09:44:27.907Z,7.96
2023-01-13T09:47:02.717Z,8.02
2023-01-13T09:49:37.424Z,8.20
2023-01-13T09:52:14.682Z,8.26
2023-01-13T09:54:43.876Z,8.24
2023-01-13T09:57:13.297Z,8.26
2023-01-13T09:59:40.343Z,8.68
2023-01-13T10:02:31.920Z,9.97
2023-01-13T10:05:36.376Z,9.54
2023-01-13T10:08:10.371Z,9.02
2023-01-13T10:10:47.128Z,8.85
2023-01-13T10:13:21.891Z,8.83
2023-01-13T10:16:13.070Z,8.82
2023-01-13T10:19:01.111Z,8.97
2023-01-13T10:21:55.540Z,8.97
2023-01-13T10:24:38.627Z,9.02
2023-01-13T10:27:18.845Z,9.07
2023-01-13T10:29:55.592Z,9.09
2023-01-13T10:32:30.627Z,9.31
2023-01-13T10:34:58.157Z,9.32
2023-01-13T10:37:31.633Z,9.38
2023-01-13T10:40:01.970Z,9.41
2023-01-13T10:42:30.030Z,9.42
2023-01-13T10:45:00.439Z,9.52
2023-01-13T10:47:28.751Z,9.60
2023-01-13T10:50:13.451Z,9.71
2023-01-13T10:53:01.521Z,9.65
2023-01-13T10:55:32.797Z,9.70
2023-01-13T10:58:27.802Z,9.72
2023-01-13T11:01:21.037Z,9.76
2023-01-13T11:03:56.712Z,9.79
2023-01-13T11:06:37.651Z,9.95
2023-01-13T11:09:19.816Z,9.79
2023-01-13T11:11:54.255Z,9.76
2023-01-13T11:14:54.453Z,9.93
2023-01-13T11:17:29.709Z,9.94
2023-01-13T11:20:11.245Z,9.86
2023-01-13T11:22:51.433Z,9.89
2023-01-13T11:28:37.640Z,9.95
2023-01-13T11:31:23.559Z,10.06
2023-01-13T11:34:01.215Z,10.36
2023-01-13T11:36:51.380Z,10.35
2023-01-13T11:39:50.276Z,10.24
2023-01-13T11:42:36.732Z,10.14
2023-01-13T11:45:15.223Z,10.10
2023-01-13T11:47:41.773Z,10.13
2023-01-13T11:50:47.652Z,10.14
2023-01-13T11:53:41.920Z,10.13
2023-01-13T11:56:29.153Z,10.00
2023-01-13T11:59:44.324Z,9.94
2023-01-13T12:02:38.277Z,10.01
2023-01-13T12:05:21.417Z,10.14
2023-01-13T12:08:04.579Z,10.14
2023-01-13T12:10:49.157Z,10.14
2023-01-13T12:13:35.213Z,10.11
2023-01-13T12:16:26.058Z,10.10
2023-01-13T12:19:29.561Z,9.96
2023-01-13T12:22:32.609Z,10.42
2023-01-13T12:25:18.760Z,10.31
2023-01-13T12:27:59.506Z,10.13
2023-01-13T12:30:34.299Z,10.14
2023-01-13T12:33:19.843Z,10.14
2023-01-13T12:36:25.025Z,10.25
2023-01-13T12:39:14.885Z,10.29
2023-01-13T12:42:15.057Z,10.17
2023-01-13T12:45:11.404Z,10.12
2023-01-13T12:47:43.912Z,9.99
2023-01-13T12:50:22.310Z,9.89
2023-01-13T12:52:53.492Z,9.93
2023-01-13T12:55:30.169Z,9.91
2023-01-13T12:58:10.479Z,10.02
2023-01-13T13:00:44.905Z,10.04
2023-01-13T13:03:12.473Z,10.13
2023-01-13T13:05:57.183Z,10.30
2023-01-13T13:08:48.807Z,10.13
2023-01-13T13:11:46.888Z,10.22
2023-01-13T13:14:14.367Z,10.08
2023-01-13T13:16:51.313Z,9.97
2023-01-13T13:19:17.855Z,9.96
2023-01-13T13:22:12.166Z,10.01
2023-01-13T13:24:43.159Z,10.07
2023-01-13T13:27:39.784Z,10.47
2023-01-13T13:30:24.521Z,10.52
2023-01-13T13:33:15.893Z,11.12
2023-01-13T13:36:40.034Z,10.92
2023-01-13T13:39:30.292Z,11.07
2023-01-13T13:42:10.953Z,10.78
2023-01-13T13:44:40.762Z,10.51
2023-01-13T13:47:08.142Z,10.54
2023-01-13T13:49:53.373Z,10.72
2023-01-13T13:52:35.050Z,10.68
2023-01-13T13:55:20.958Z,10.37
2023-01-13T13:57:51.564Z,10.32
2023-01-13T14:00:21.071Z,10.41
2023-01-13T14:02:58.599Z,10.44
2023-01-13T14:05:32.141Z,10.58
2023-01-13T14:08:21.241Z,10.34
2023-01-13T14:10:52.109Z,10.28
2023-01-13T14:13:21.978Z,10.22
2023-01-13T14:16:06.803Z,10.11
2023-01-13T14:18:42.450Z,10.35
2023-01-13T14:21:28.278Z,10.15
2023-01-13T14:24:10.713Z,10.24
2023-01-13T14:26:40.318Z,10.06
2023-01-13T14:29:18.139Z,9.95
2023-01-13T14:31:49.165Z,9.94
2023-01-13T14:34:31.001Z,9.90
2023-01-13T14:37:09.521Z,9.76
2023-01-13T14:39:42.542Z,9.76
2023-01-13T14:42:13.629Z,9.85
2023-01-13T14:44:54.399Z,9.78
2023-01-13T14:47:29.743Z,9.73
2023-01-13T14:50:30.238Z,9.78
2023-01-13T14:52:58.544Z,9.79
2023-01-13T14:55:38.537Z,9.66
2023-01-13T14:58:25.086Z,9.62
2023-01-13T15:01:15.067Z,9.70
2023-01-13T15:03:46.092Z,9.65
2023-01-13T15:06:29.019Z,9.36
2023-01-13T15:08:55.853Z,9.33
2023-01-13T15:11:33.560Z,9.33
2023-01-13T15:14:01.673Z,9.34
2023-01-13T15:16:29.000Z,9.53
2023-01-13T15:18:58.754Z,9.43
2023-01-13T15:21:25.358Z,9.78
2023-01-13T15:23:57.723Z,9.81
2023-01-13T15:26:32.706Z,9.62
2023-01-13T15:29:03.801Z,9.45
2023-01-13T15:31:35.166Z,9.35
2023-01-13T15:34:01.722Z,9.34
2023-01-13T15:36:35.116Z,9.40
2023-01-13T15:39:07.728Z,9.52
2023-01-13T15:41:35.187Z,9.55
2023-01-13T15:44:06.778Z,9.31
2023-01-13T15:46:37.145Z,9.37
2023-01-13T15:49:35.535Z,9.20
2023-01-13T15:52:22.025Z,9.12
2023-01-13T15:54:52.122Z,8.97
2023-01-13T15:57:23.252Z,8.92
2023-01-13T16:00:01.525Z,8.87
2023-01-13T16:02:32.282Z,8.80
2023-01-13T16:05:02.523Z,8.81
2023-01-13T16:07:37.136Z,8.78
2023-01-13T16:10:14.201Z,8.75
2023-01-13T16:12:40.759Z,8.65
2023-01-13T16:15:13.370Z,8.63
2023-01-13T16:17:51.758Z,8.63
2023-01-13T16:20:29.277Z,8.84
2023-01-13T16:22:58.505Z,8.84
2023-01-13T16:25:41.423Z,8.91
2023-01-13T16:28:26.488Z,8.73
2023-01-13T16:30:57.701Z,8.58
2023-01-13T16:33:33.280Z,8.51
2023-01-13T16:36:17.414Z,8.64
2023-01-13T16:38:48.739Z,8.54
2023-01-13T16:41:25.914Z,8.46
2023-01-13T16:44:01.155Z,8.45
2023-01-13T16:46:30.137Z,8.52
2023-01-13T16:49:01.761Z,8.60
2023-01-13T16:51:29.091Z,8.55
2023-01-13T16:53:55.701Z,8.44
2023-01-13T16:56:40.845Z,8.38
2023-01-13T16:59:12.766Z,8.37
2023-01-13T17:01:42.716Z,8.33
2023-01-13T17:04:20.424Z,8.32
2023-01-13T17:06:50.467Z,8.47
2023-01-13T17:09:22.792Z,8.35
2023-01-13T17:11:55.580Z,8.25
2023-01-13T17:14:24.137Z,8.41
2023-01-13T17:16:53.880Z,8.43
2023-01-13T17:19:22.124Z,8.31
2023-01-13T17:21:58.932Z,8.29
2023-01-13T17:24:26.071Z,8.37
2023-01-13T17:26:52.692Z,8.78
2023-01-13T17:29:21.914Z,8.78
2023-01-13T17:31:52.099Z,8.76
2023-01-13T17:34:30.942Z,8.73
2023-01-13T17:37:06.702Z,8.70
2023-01-13T17:39:51.297Z,8.57
2023-01-13T17:42:18.245Z,8.71
2023-01-13T17:44:44.917Z,8.79
2023-01-13T17:47:11.511Z,8.76
2023-01-13T17:49:45.763Z,8.98
2023-01-13T17:52:12.550Z,8.71
2023-01-13T17:54:49.664Z,8.55
2023-01-13T17:57:27.732Z,8.45
2023-01-13T17:59:59.247Z,8.24
2023-01-13T18:02:33.543Z,8.16
2023-01-13T18:05:05.968Z,8.24
2023-01-13T18:07:42.317Z,8.20
2023-01-13T18:10:14.090Z,8.13
2023-01-13T18:12:51.405Z,8.01
2023-01-13T18:15:20.289Z,8.04
2023-01-13T18:17:51.922Z,8.07
2023-01-13T18:20:20.488Z,7.97
2023-01-13T18:22:47.768Z,8.13
2023-01-13T18:25:23.318Z,8.05
2023-01-13T18:27:49.986Z,7.80
2023-01-13T18:30:27.409Z,7.80
2023-01-13T18:32:56.184Z,7.77
2023-01-13T18:35:32.332Z,7.92
2023-01-13T18:38:08.747Z,7.97
2023-01-13T18:40:44.191Z,7.95
2023-01-13T18:43:19.460Z,7.99
2023-01-13T18:45:58.696Z,8.27
2023-01-13T18:48:38.206Z,8.21
2023-01-13T18:51:17.542Z,8.24
2023-01-13T18:53:54.837Z,8.54
2023-01-13T18:56:35.161Z,8.43
2023-01-13T18:59:15.755Z,8.68
2023-01-13T19:01:55.251Z,8.38
2023-01-13T19:04:32.558Z,8.04
2023-01-13T19:07:13.433Z,8.15
2023-01-13T19:09:51.856Z,8.21
2023-01-13T19:12:36.336Z,8.01
2023-01-13T19:15:13.778Z,7.88
2023-01-13T19:17:51.481Z,8.27
2023-01-13T19:20:25.387Z,7.97
2023-01-13T19:23:07.603Z,7.78
2023-01-13T19:25:36.809Z,7.65
2023-01-13T19:28:04.803Z,7.69
2023-01-13T19:30:31.492Z,7.61
2023-01-13T19:33:21.887Z,7.78
2023-01-13T19:36:07.213Z,7.73
2023-01-13T19:38:41.597Z,7.61
2023-01-13T19:41:20.288Z,7.56
2023-01-13T19:43:59.082Z,8.07
2023-01-13T19:46:31.740Z,7.72
2023-01-13T19:49:05.800Z,7.87
2023-01-13T19:51:33.397Z,7.87
2023-01-13T19:54:01.356Z,7.70
2023-01-13T19:56:36.382Z,7.74
2023-01-13T19:59:04.093Z,7.86
2023-01-13T20:01:40.714Z,7.54
2023-01-13T20:04:17.527Z,7.42
2023-01-13T20:06:45.207Z,7.51
2023-01-13T20:09:20.256Z,7.59
2023-01-13T20:11:50.937Z,7.38
2023-01-13T20:14:20.794Z,7.25
2023-01-13T20:16:55.592Z,7.19
2023-01-13T20:19:30.621Z,7.18
2023-01-13T20:21:58.266Z,7.40
2023-01-13T20:24:30.865Z,7.23
2023-01-13T20:27:01.531Z,7.32
2023-01-13T20:29:38.420Z,7.19
2023-01-13T20:32:07.551Z,7.26
2023-01-13T20:34:40.767Z,7.35
2023-01-13T20:37:12.427Z,7.38
2023-01-13T20:39:46.490Z,7.37
2023-01-13T20:42:18.865Z,7.29
2023-01-13T20:44:59.133Z,7.59
2023-01-13T20:47:31.727Z,7.60
2023-01-13T20:50:09.450Z,7.81
2023-01-13T20:52:45.918Z,7.49
2023-01-13T20:55:21.281Z,7.65
2023-01-13T20:57:48.918Z,7.45
2023-01-13T21:00:28.469Z,7.50
2023-01-13T21:03:02.362Z,7.33
2023-01-13T21:05:36.172Z,7.25
2023-01-13T21:08:11.532Z,7.22
2023-01-13T21:10:38.849Z,7.09
2023-01-13T21:13:18.868Z,7.07
2023-01-13T21:15:48.131Z,7.27
2023-01-13T21:18:21.960Z,7.22
2023-01-13T21:20:57.980Z,7.21
2023-01-13T21:23:33.219Z,7.11
2023-01-13T21:26:13.229Z,7.04
2023-01-13T21:28:47.238Z,7.03
2023-01-13T21:31:23.753Z,7.11
2023-01-13T21:34:04.076Z,7.16
2023-01-13T21:36:36.900Z,7.17
2023-01-13T21:39:11.057Z,7.02
2023-01-13T21:41:39.972Z,7.01
2023-01-13T21:44:26.891Z,6.87
2023-01-13T21:46:58.779Z,6.81
2023-01-13T21:49:30.999Z,6.80
2023-01-13T21:51:58.275Z,7.95
2023-01-13T21:54:34.023Z,7.43
2023-01-13T21:57:10.739Z,7.18
2023-01-13T21:59:47.560Z,6.91
2023-01-13T22:02:25.211Z,6.85
2023-01-13T22:04:59.477Z,6.71
2023-01-13T22:07:28.514Z,6.68
2023-01-13T22:10:01.109Z,6.60
2023-01-13T22:12:28.087Z,6.52
2023-01-13T22:15:02.870Z,6.55
2023-01-13T22:17:35.041Z,6.54
2023-01-13T22:20:01.977Z,6.52
2023-01-13T22:22:28.954Z,6.61
2023-01-13T22:25:03.106Z,6.66
2023-01-13T22:27:40.646Z,6.75
2023-01-13T22:30:12.579Z,6.97
2023-01-13T22:32:53.833Z,6.84
2023-01-13T22:35:29.584Z,6.78
2023-01-13T22:37:58.770Z,6.69
2023-01-13T22:40:28.035Z,6.59
2023-01-13T22:43:04.503Z,6.57
2023-01-13T22:45:31.125Z,6.45
2023-01-13T22:48:07.841Z,6.41
2023-01-13T22:50:44.364Z,6.38
2023-01-13T22:53:15.354Z,6.36
2023-01-13T22:55:43.850Z,6.42
2023-01-13T22:58:19.448Z,6.44
2023-01-13T23:00:49.495Z,6.26
2023-01-13T23:03:23.570Z,6.16
2023-01-13T23:06:04.508Z,6.15
2023-01-13T23:08:45.329Z,6.16
2023-01-13T23:11:14.033Z,6.10
2023-01-13T23:13:41.565Z,5.92
2023-01-13T23:16:26.819Z,5.84
2023-01-13T23:18:56.149Z,5.90
2023-01-13T23:21:41.117Z,5.83
2023-01-13T23:24:19.235Z,5.77
2023-01-13T23:26:54.464Z,5.77
2023-01-13T23:29:34.147Z,5.75
2023-01-13T23:32:11.225Z,5.72
2023-01-13T23:34:39.573Z,5.71
2023-01-13T23:37:06.317Z,5.70
2023-01-13T23:39:40.268Z,5.62
2023-01-13T23:42:21.027Z,5.64
2023-01-13T23:44:58.735Z,5.65
2023-01-13T23:47:29.169Z,5.68
2023-01-13T23:49:58.680Z,5.58
2023-01-13T23:52:36.548Z,5.49
2023-01-13T23:55:20.068Z,5.38
2023-01-13T23:57:48.195Z,5.38
